Main page
METAR-TAF:

METAR-TAF

Airports :

Wick, Scotland

Wick Airport

latitude: 58-27N, longitude: 003-05W, elevation: 39 m

Current weather observation

The report was made 19 minutes ago, at 23:50 UTC
Wind 8 kt from the Southeast
Temperature 11°C
Humidity 87%
Pressure 1013 hPa
Visibility 10 km or more

METAR: EGPC 192350Z AUTO 13008KT 9999 NCD 11/09 Q1013

Time: 01:09 (00:09 UTC)

Forecast

The report was made 1 hour and 10 minutes ago, at 22:59 UTC
Forecast valid from 20 at 00 UTC to 20 at 09 UTC
Wind 9 kt from the Southeast
Visibility 10 km or more
Few clouds at a height of 2000 ft
Probability 30% :
Temporary
from 20 at 08 UTC to 20 at 09 UTC
Visibility: 7000 m
rain

TAF: EGPC 192259Z 2000/2009 13009KT 9999 FEW020 PROB30 TEMPO 2008/2009 7000 RA

Weather observations and forecasts of more than 4000 airports (METAR and TAF reports).

The available stations are represented by yellow and red dots on the map.

Hover mouse over dot to see the name of the station.

Then click to see weather observations and forecasts.

To change the map : click on the green buttons with a black cross to zoom in, on the green button with a dash to zoom out, or on the green arrows for adjacent maps.


METAR-TAF: